createdAt,value
2023-03-17T00:04:44.514Z,34.6
2023-03-17T00:09:45.033Z,30
2023-03-17T00:14:45.375Z,26.4
2023-03-17T00:19:45.802Z,32.5
2023-03-17T00:24:46.233Z,43.4
2023-03-17T00:29:46.637Z,80.5
2023-03-17T00:34:47.079Z,61.3
2023-03-17T00:39:47.550Z,154.3
2023-03-17T00:44:47.958Z,128.1
2023-03-17T00:49:48.328Z,124.8
2023-03-17T00:54:48.870Z,77.5
2023-03-17T00:59:49.500Z,72.2
2023-03-17T01:04:59.662Z,61.8
2023-03-17T01:09:59.495Z,61.3
2023-03-17T01:14:59.990Z,57.7
2023-03-17T01:20:00.479Z,68.1
2023-03-17T01:25:00.921Z,56.8
2023-03-17T01:30:01.403Z,36.6
2023-03-17T01:35:01.924Z,47
2023-03-17T01:40:02.296Z,57.4
2023-03-17T01:45:02.850Z,65.8
2023-03-17T01:50:03.245Z,73.2
2023-03-17T01:55:03.754Z,68.6
2023-03-17T02:00:04.247Z,58.6
2023-03-17T02:05:04.691Z,60.1
2023-03-17T02:10:05.127Z,45.5
2023-03-17T02:15:05.635Z,64.3
2023-03-17T02:20:06.174Z,79.1
2023-03-17T02:25:06.642Z,85.9
2023-03-17T02:30:07.113Z,67.5
2023-03-17T02:35:07.629Z,69.3
2023-03-17T02:40:08.071Z,74.1
2023-03-17T02:45:08.546Z,75.9
2023-03-17T02:50:08.976Z,69.1
2023-03-17T02:55:09.542Z,50.1
2023-03-17T03:00:10.198Z,63.6
2023-03-17T03:05:10.697Z,85.9
2023-03-17T03:10:11.166Z,43.9
2023-03-17T03:15:11.591Z,37
2023-03-17T03:20:12.059Z,54.6
2023-03-17T03:25:12.461Z,76.8
2023-03-17T03:30:12.989Z,45.8
2023-03-17T03:35:13.470Z,62.2
2023-03-17T03:40:13.849Z,74.9
2023-03-17T03:45:14.503Z,71.2
2023-03-17T03:50:14.855Z,47
2023-03-17T03:55:15.428Z,93.2
2023-03-17T04:00:16.081Z,69.7
2023-03-17T04:05:16.453Z,78.8
2023-03-17T04:10:16.882Z,72.4
2023-03-17T04:15:17.444Z,43.5
2023-03-17T04:20:17.866Z,46.7
2023-03-17T04:25:18.282Z,44
2023-03-17T04:30:18.707Z,56.2
2023-03-17T04:35:19.185Z,34.5
2023-03-17T04:40:19.630Z,38.8
2023-03-17T04:45:20.069Z,41.3
2023-03-17T04:50:20.696Z,52.5
2023-03-17T04:55:21.307Z,45.2
2023-03-17T05:00:22.274Z,34.1
2023-03-17T05:05:22.862Z,29.2
2023-03-17T05:10:23.304Z,27.7
2023-03-17T05:15:23.766Z,32.8
2023-03-17T05:20:24.173Z,47.3
2023-03-17T05:25:27.675Z,68.6
2023-03-17T05:30:28.304Z,74.6
2023-03-17T05:35:29.771Z,77.3
2023-03-17T05:40:30.456Z,68.4
2023-03-17T05:45:31.619Z,69
2023-03-17T05:50:32.463Z,61.9
2023-03-17T05:55:33.457Z,55.3
2023-03-17T06:00:34.015Z,50.3
2023-03-17T06:05:34.849Z,49
2023-03-17T06:10:35.516Z,47.5
2023-03-17T06:15:38.043Z,46.8
2023-03-17T06:20:38.943Z,45.2
2023-03-17T06:25:39.408Z,38.8
2023-03-17T06:30:40.809Z,57.2
2023-03-17T06:35:41.509Z,37
2023-03-17T06:40:42.175Z,26.3
2023-03-17T06:45:42.711Z,28.6
2023-03-17T06:50:43.195Z,20.5
2023-03-17T06:55:43.833Z,23.3
2023-03-17T07:00:44.299Z,20.8
2023-03-17T07:05:44.715Z,22.9
2023-03-17T07:10:45.084Z,21.4
2023-03-17T07:15:45.495Z,19
2023-03-17T07:20:46.246Z,16.9
2023-03-17T07:25:46.756Z,15.1
2023-03-17T07:30:47.203Z,15.5
2023-03-17T07:35:47.802Z,12
2023-03-17T07:40:49.338Z,11.6
2023-03-17T07:45:49.843Z,10
2023-03-17T07:50:50.294Z,13.1
2023-03-17T07:55:50.867Z,12
2023-03-17T08:00:51.337Z,12.7
2023-03-17T08:05:51.910Z,10.4
2023-03-17T08:10:52.366Z,9.5
2023-03-17T08:15:52.776Z,9.7
2023-03-17T08:20:53.235Z,10.5
2023-03-17T08:25:53.930Z,11.1
2023-03-17T08:30:54.652Z,9.1
2023-03-17T08:35:55.299Z,9.4
2023-03-17T08:40:55.838Z,7.4
2023-03-17T08:45:56.362Z,6.9
2023-03-17T08:50:57.009Z,7.8
2023-03-17T08:55:57.660Z,6.2
2023-03-17T09:00:58.115Z,6.6
2023-03-17T09:05:58.721Z,5.7
2023-03-17T09:10:59.098Z,6.7
2023-03-17T09:15:59.470Z,7.7
2023-03-17T09:21:00.314Z,8
2023-03-17T09:26:00.762Z,7.6
2023-03-17T09:31:01.416Z,7
2023-03-17T09:36:02.268Z,8.8
2023-03-17T09:41:02.741Z,6.6
2023-03-17T09:46:03.251Z,7.5
2023-03-17T09:51:03.900Z,7
2023-03-17T09:56:04.664Z,6.5
2023-03-17T10:01:05.117Z,6.9
2023-03-17T10:06:05.967Z,8.2
2023-03-17T10:11:07.372Z,7.1
2023-03-17T10:16:07.839Z,6.8
2023-03-17T10:21:08.676Z,8.5
2023-03-17T10:26:09.099Z,6
2023-03-17T10:31:09.798Z,6.8
2023-03-17T10:36:10.493Z,6.4
2023-03-17T10:41:10.944Z,8.8
2023-03-17T10:46:11.398Z,6.5
2023-03-17T10:51:11.781Z,7.5
2023-03-17T10:56:12.404Z,6
2023-03-17T11:01:12.965Z,7.4
2023-03-17T11:06:13.732Z,5.2
2023-03-17T11:11:14.239Z,7.3
2023-03-17T11:16:14.652Z,5.9
2023-03-17T11:21:15.195Z,7.2
2023-03-17T11:26:15.566Z,6
2023-03-17T11:31:16.109Z,7.6
2023-03-17T11:36:16.739Z,7.1
2023-03-17T11:41:17.094Z,7.6
2023-03-17T11:46:17.528Z,7.7
2023-03-17T11:51:18.299Z,8.6
2023-03-17T11:56:18.781Z,5.9
2023-03-17T12:01:19.280Z,6
2023-03-17T12:06:19.673Z,5.3
2023-03-17T12:11:20.091Z,5
2023-03-17T12:16:20.673Z,4.9
2023-03-17T12:21:21.337Z,7.1
2023-03-17T12:26:21.784Z,7.3
2023-03-17T12:31:22.238Z,6.1
2023-03-17T12:36:23.067Z,7
2023-03-17T12:41:23.536Z,6.5
2023-03-17T12:46:24.273Z,18.2
2023-03-17T12:51:24.784Z,9.4
2023-03-17T12:56:25.585Z,10.5
2023-03-17T13:01:26.136Z,9.3
2023-03-17T13:06:26.883Z,9
2023-03-17T13:11:27.284Z,9.4
2023-03-17T13:16:27.838Z,6.4
2023-03-17T13:21:30.285Z,8.3
2023-03-17T13:26:35.923Z,7.6
2023-03-17T13:31:42.117Z,6.9
2023-03-17T13:36:42.893Z,8.5
2023-03-17T13:41:43.388Z,5.9
2023-03-17T13:46:43.966Z,10.6
2023-03-17T13:51:52.853Z,6.9
2023-03-17T13:56:50.677Z,9
2023-03-17T14:01:51.081Z,11.5
2023-03-17T14:06:51.525Z,9
2023-03-17T14:11:52.134Z,9.7
2023-03-17T14:16:52.555Z,10.3
2023-03-17T14:21:53.003Z,8.2
2023-03-17T14:26:53.770Z,9
2023-03-17T14:31:54.226Z,6
2023-03-17T14:36:54.769Z,6
2023-03-17T14:41:55.115Z,10.2
2023-03-17T14:46:55.580Z,11.8
2023-03-17T14:51:55.985Z,8
2023-03-17T14:56:56.519Z,7.2
2023-03-17T15:01:57.143Z,9
2023-03-17T15:06:57.662Z,7.6
2023-03-17T15:12:01.204Z,7.8
2023-03-17T15:17:01.755Z,7.8
2023-03-17T15:22:02.377Z,8.3
2023-03-17T15:27:02.854Z,7
2023-03-17T15:32:03.394Z,8.5
2023-03-17T15:37:04.117Z,7.9
2023-03-17T15:42:04.603Z,9.7
2023-03-17T15:47:06.076Z,6
2023-03-17T15:52:06.428Z,8.6
2023-03-17T15:57:06.833Z,9.2
2023-03-17T16:02:07.506Z,11.2
2023-03-17T16:07:07.894Z,11
2023-03-17T16:12:08.298Z,10.1
2023-03-17T16:17:08.821Z,11.6
2023-03-17T16:22:09.228Z,11.2
2023-03-17T16:27:09.570Z,14.4
2023-03-17T16:32:09.951Z,10.2
2023-03-17T16:37:10.427Z,7.3
2023-03-17T16:42:10.853Z,10.4
2023-03-17T16:47:11.264Z,13.8
2023-03-17T16:52:27.119Z,11.2
2023-03-17T16:57:17.502Z,9.2
2023-03-17T17:02:18.049Z,11.3
2023-03-17T17:07:18.469Z,19
2023-03-17T17:12:18.916Z,11.4
2023-03-17T17:17:19.309Z,13.8
2023-03-17T17:22:19.695Z,14.9
2023-03-17T17:27:20.426Z,19.7
2023-03-17T17:37:21.416Z,14.8
2023-03-17T17:42:22.393Z,14.4
2023-03-17T17:47:22.914Z,14.1
2023-03-17T17:52:23.780Z,13.4
2023-03-17T17:57:28.079Z,13.9
2023-03-17T18:02:28.210Z,26.2
2023-03-17T18:07:28.834Z,16.6
2023-03-17T18:12:29.401Z,19.4
2023-03-17T18:17:32.306Z,28.5
2023-03-17T18:22:32.937Z,25.7
2023-03-17T18:27:33.422Z,31.1
2023-03-17T18:32:34.044Z,37.1
2023-03-17T18:37:34.535Z,27.8
2023-03-17T18:42:34.947Z,23.7
2023-03-17T18:47:35.468Z,26.4
2023-03-17T18:52:36.224Z,24.4
2023-03-17T18:57:36.814Z,21.9
2023-03-17T19:02:37.631Z,25.4
2023-03-17T19:07:40.239Z,30.1
2023-03-17T19:12:41.073Z,38.7
2023-03-17T19:17:41.710Z,40
2023-03-17T19:22:42.345Z,43.9
2023-03-17T19:27:42.807Z,38.8
2023-03-17T19:32:43.418Z,36.3
2023-03-17T19:37:43.976Z,35.9
2023-03-17T19:42:44.531Z,43.3
2023-03-17T19:47:45.174Z,34.6
2023-03-17T19:52:45.765Z,28.5
2023-03-17T19:57:46.500Z,29.8
2023-03-17T20:02:47.443Z,30.5
2023-03-17T20:07:48.244Z,26.2
2023-03-17T20:12:48.958Z,26.4
2023-03-17T20:17:49.462Z,26.3
2023-03-17T20:22:50.032Z,28
2023-03-17T20:27:50.755Z,26.7
2023-03-17T20:32:51.338Z,25.9
2023-03-17T20:37:54.719Z,25.9
2023-03-17T20:42:55.214Z,26.9
2023-03-17T20:47:55.765Z,28.1
2023-03-17T20:52:56.313Z,27.2
2023-03-17T20:57:57.099Z,28.4
2023-03-17T21:02:58.058Z,30.1
2023-03-17T21:07:58.814Z,34
2023-03-17T21:12:59.472Z,32
2023-03-17T21:18:00.224Z,30.8
2023-03-17T21:23:00.889Z,30.2
2023-03-17T21:28:01.702Z,29.5
2023-03-17T21:33:02.244Z,33.1
2023-03-17T21:38:02.785Z,31.5
2023-03-17T21:43:03.888Z,26
2023-03-17T21:48:04.463Z,24.6
2023-03-17T21:53:05.077Z,23.1
2023-03-17T21:58:05.871Z,23.6
2023-03-17T22:03:07.050Z,23.4
2023-03-17T22:08:07.865Z,19.1
2023-03-17T22:13:08.673Z,18.3
2023-03-17T22:18:09.150Z,17
2023-03-17T22:23:10.178Z,18.4
2023-03-17T22:28:10.929Z,17.1
2023-03-17T22:33:12.163Z,15.3
2023-03-17T22:38:12.826Z,18.8
2023-03-17T22:43:13.499Z,17.8
2023-03-17T22:48:14.154Z,17.9
2023-03-17T22:58:15.441Z,16.4
2023-03-17T23:03:16.154Z,17.3
2023-03-17T23:08:16.662Z,20.7
2023-03-17T23:13:17.105Z,17.4
2023-03-17T23:18:17.646Z,24.9
2023-03-17T23:23:18.120Z,21.1
2023-03-17T23:28:18.890Z,24.3
2023-03-17T23:33:19.306Z,21.5
2023-03-17T23:38:19.845Z,21.2
2023-03-17T23:43:20.366Z,22.9
2023-03-17T23:48:20.801Z,21.8
2023-03-17T23:53:21.278Z,20.5
2023-03-17T23:58:21.795Z,22.3
